Bokchito, Oklahoma
Current Conditions -  °F | °C
As of 7:35 AM on Friday 24 Oct 2014 (Local Time) from KDUA Reporting Station
Scattered Clouds Scattered Clouds  
Wind Chill: 12°   Ceiling: Unl
Heat Index: 12°   Visibility: 10mi
Dew Point: 12°   Wind: 5mph
Humidity: 100%   Direction: 140°SE
Pressure: 30.15"   Gusts: NA
Location:  34.02°N, 96.14°W
Report Text: KDUA 241235Z AUTO 14004KT 10SM SCT055 12/12 A3015 RMK AO2
Loading
Personal Weather Stations






























Interactive Weather Map
Tropical Storm Tracking
New forecast layout! Learn more

10-Day Weather Forecast

Advertisements
Track Severe Weather on mobile